Time;durP1;ratioP1;P1;durP2;ratioP2;P2;SDS_P1;SDS_P2;PMS_P1;PMS_P2;Temp;Humidity;BMP_temperature;BMP_pressure;BME280_temperature;BME280_humidity;BME280_pressure;Samples;Min_cycle;Max_cycle;Signal;HPM_P1;HPM_P2
2024/01/13 00:02:23;;;;;;;13.95;10.45;;;;;;;-5.41;100.00;98410.66;1224825;75;2919655;-65
2024/01/13 00:04:56;;;;;;;15.50;11.85;;;;;;;-5.38;100.00;98399.28;1224210;75;2918911;-67
2024/01/13 00:07:29;;;;;;;14.35;9.95;;;;;;;-5.43;100.00;98404.16;1224154;75;2919697;-64
2024/01/13 00:10:05;;;;;;;15.40;10.35;;;;;;;-5.48;100.00;98401.72;1225537;75;2914133;-64
2024/01/13 00:12:37;;;;;;;13.45;9.90;;;;;;;-5.48;100.00;98396.38;1224627;75;2918352;-64
2024/01/13 00:15:12;;;;;;;14.55;11.10;;;;;;;-5.71;100.00;98402.41;1224957;75;2930672;-62
2024/01/13 00:17:45;;;;;;;16.20;12.40;;;;;;;-5.79;100.00;98396.16;1223870;75;2924946;-64
2024/01/13 00:20:18;;;;;;;16.80;12.30;;;;;;;-5.63;100.00;98404.13;1224580;75;2928042;-65
2024/01/13 00:22:50;;;;;;;14.35;10.95;;;;;;;-5.63;100.00;98392.66;1225354;75;2914522;-65
2024/01/13 00:25:26;;;;;;;13.55;10.15;;;;;;;-5.66;100.00;98398.69;1224717;75;2929052;-66
2024/01/13 00:27:59;;;;;;;13.45;10.35;;;;;;;-5.69;100.00;98402.84;1224256;75;2919092;-65
2024/01/13 00:30:31;;;;;;;14.20;10.45;;;;;;;-5.82;100.00;98404.88;1225781;75;2918365;-67
2024/01/13 00:33:04;;;;;;;17.40;13.15;;;;;;;-6.03;100.00;98399.84;1224614;75;2914906;-66
2024/01/13 00:35:37;;;;;;;22.80;16.65;;;;;;;-6.08;100.00;98402.78;1224193;75;2922255;-65
2024/01/13 00:38:10;;;;;;;22.20;16.05;;;;;;;-6.13;100.00;98405.72;1224823;75;2922136;-64
2024/01/13 00:40:45;;;;;;;20.75;15.60;;;;;;;-6.06;100.00;98402.44;1225682;75;2922692;-64
2024/01/13 00:43:18;;;;;;;19.10;14.80;;;;;;;-5.95;100.00;98394.69;1224885;67;2920497;-64
2024/01/13 00:45:51;;;;;;;18.50;13.55;;;;;;;-5.97;100.00;98396.91;1225422;75;2922602;-64
2024/01/13 00:48:23;;;;;;;18.60;13.60;;;;;;;-6.04;100.00;98400.19;1225307;75;2916567;-65
2024/01/13 00:50:56;;;;;;;21.45;15.50;;;;;;;-6.03;100.00;98396.44;1224709;75;2922958;-63
2024/01/13 00:53:29;;;;;;;25.30;15.90;;;;;;;-5.94;100.00;98397.00;1223903;75;2922357;-65
2024/01/13 00:56:05;;;;;;;18.85;13.60;;;;;;;-5.91;100.00;98398.94;1225686;75;2917427;-64
2024/01/13 00:58:39;;;;;;;16.90;12.20;;;;;;;-5.92;100.00;98399.28;1224383;75;2920375;-64
2024/01/13 01:01:12;;;;;;;14.65;11.05;;;;;;;-5.93;100.00;98392.41;1225898;75;2922735;-63
2024/01/13 01:03:44;;;;;;;13.40;10.65;;;;;;;-6.01;100.00;98381.63;1223896;75;2921546;-64
2024/01/13 01:06:17;;;;;;;12.85;10.10;;;;;;;-5.97;100.00;98378.25;1224662;75;2917744;-65
2024/01/13 01:08:50;;;;;;;15.25;11.25;;;;;;;-6.16;100.00;98385.09;1224745;75;2891517;-65
2024/01/13 01:11:26;;;;;;;17.80;13.25;;;;;;;-6.30;100.00;98385.56;1225426;75;2919799;-66
2024/01/13 01:13:59;;;;;;;15.50;11.60;;;;;;;-6.19;100.00;98388.44;1224254;75;2923977;-64
2024/01/13 01:16:33;;;;;;;16.25;11.90;;;;;;;-6.16;100.00;98382.41;1225199;75;2917104;-64
2024/01/13 01:19:06;;;;;;;16.20;12.75;;;;;;;-6.35;100.00;98382.34;1224244;75;2925241;-62
2024/01/13 01:21:39;;;;;;;15.05;11.80;;;;;;;-6.27;100.00;98376.09;1224608;75;2924443;-65
2024/01/13 01:24:12;;;;;;;14.00;10.80;;;;;;;-6.27;100.00;98376.84;1225050;75;2923762;-65
2024/01/13 01:26:47;;;;;;;13.80;10.20;;;;;;;-6.26;100.00;98372.28;1223847;75;2925680;-65
2024/01/13 01:29:20;;;;;;;29.15;19.05;;;;;;;-6.60;100.00;98363.13;1224128;75;2922695;-64
2024/01/13 01:31:53;;;;;;;23.20;17.50;;;;;;;-6.34;100.00;98367.94;1225121;75;2915328;-63
2024/01/13 01:34:26;;;;;;;23.45;17.35;;;;;;;-6.47;100.00;98369.91;1223145;75;2929017;-66
2024/01/13 01:36:58;;;;;;;25.35;18.50;;;;;;;-6.36;100.00;98364.84;1224389;75;2920324;-64
2024/01/13 01:39:31;;;;;;;23.40;17.80;;;;;;;-6.39;100.00;98360.22;1224985;75;2925053;-65
2024/01/13 01:42:07;;;;;;;19.60;14.65;;;;;;;-6.27;100.00;98358.22;1224502;75;2920784;-63
2024/01/13 01:44:40;;;;;;;17.65;13.45;;;;;;;-6.48;100.00;98363.03;1224473;75;2920678;-63
2024/01/13 01:47:13;;;;;;;17.40;13.15;;;;;;;-6.38;100.00;98359.84;1225297;75;2924295;-63
2024/01/13 01:49:46;;;;;;;14.60;11.95;;;;;;;-6.38;100.00;98349.19;1224615;75;2921839;-63
2024/01/13 01:52:19;;;;;;;13.00;10.45;;;;;;;-6.36;100.00;98352.28;1224041;75;2923297;-64
2024/01/13 01:54:52;;;;;;;13.90;10.90;;;;;;;-6.38;100.00;98351.09;1224038;75;2948858;-63
2024/01/13 01:57:28;;;;;;;14.95;11.85;;;;;;;-6.54;100.00;98353.75;1223733;75;2930629;-66
2024/01/13 02:00:02;;;;;;;37.85;23.45;;;;;;;-6.60;100.00;98345.25;1225006;75;2925299;-64
2024/01/13 02:02:35;;;;;;;36.85;22.75;;;;;;;-6.35;100.00;98345.84;1222728;75;2922940;-65
2024/01/13 02:05:09;;;;;;;27.00;18.25;;;;;;;-6.33;100.00;98346.25;1222991;75;2917981;-66
2024/01/13 02:07:42;;;;;;;23.15;16.15;;;;;;;-6.32;100.00;98333.72;1225484;75;2918588;-64
2024/01/13 02:10:14;;;;;;;20.70;14.10;;;;;;;-6.47;100.00;98330.75;1223989;75;2925134;-63
2024/01/13 02:12:50;;;;;;;20.75;13.30;;;;;;;-6.46;100.00;98342.16;1224040;75;2920764;-64
2024/01/13 02:15:23;;;;;;;21.30;14.45;;;;;;;-6.66;100.00;98344.00;1224678;75;2917554;-64
2024/01/13 02:17:56;;;;;;;20.35;15.30;;;;;;;-6.69;100.00;98345.41;1224005;75;2928696;-67
2024/01/13 02:20:29;;;;;;;25.90;17.55;;;;;;;-6.67;100.00;98347.75;1224826;75;2918040;-66
2024/01/13 02:23:04;;;;;;;25.15;17.80;;;;;;;-6.64;100.00;98341.72;1224853;75;2920052;-62
2024/01/13 02:25:37;;;;;;;24.05;16.20;;;;;;;-6.57;100.00;98331.25;1222757;75;2924133;-65
2024/01/13 02:28:10;;;;;;;19.45;13.80;;;;;;;-6.53;100.00;98332.13;1225037;75;2916177;-67
2024/01/13 02:30:43;;;;;;;19.40;13.70;;;;;;;-6.59;100.00;98332.72;1224805;75;2916331;-66
2024/01/13 02:33:16;;;;;;;17.95;12.95;;;;;;;-6.56;100.00;98340.81;1224309;75;2916863;-64
2024/01/13 02:35:48;;;;;;;17.40;11.45;;;;;;;-6.51;100.00;98337.88;1223929;75;2919391;-66
2024/01/13 02:38:24;;;;;;;22.00;14.80;;;;;;;-6.86;100.00;98329.81;1210828;75;4075658;-64
2024/01/13 02:40:57;;;;;;;25.50;15.90;;;;;;;-6.78;100.00;98322.75;1223938;75;2940741;-66
2024/01/13 02:43:30;;;;;;;22.20;14.60;;;;;;;-6.71;100.00;98310.41;1223786;75;2928598;-65
2024/01/13 02:46:02;;;;;;;19.15;12.65;;;;;;;-6.84;100.00;98302.84;1225305;75;2921343;-65
2024/01/13 02:48:42;;;;;;;18.45;12.55;;;;;;;-6.70;100.00;98308.50;1224630;75;2922937;-64
2024/01/13 02:51:18;;;;;;;17.80;11.35;;;;;;;-6.77;100.00;98298.47;1224585;75;2928883;-62
2024/01/13 02:53:54;;;;;;;16.65;11.85;;;;;;;-6.83;100.00;98302.50;1224907;75;2919825;-64
2024/01/13 02:56:26;;;;;;;15.10;10.95;;;;;;;-6.77;100.00;98301.13;1223558;75;2923444;-65
2024/01/13 02:58:59;;;;;;;17.10;11.90;;;;;;;-6.79;100.00;98291.94;1224449;75;2912640;-67
2024/01/13 03:01:34;;;;;;;15.50;10.90;;;;;;;-6.76;100.00;98291.25;1225783;75;2914182;-65
2024/01/13 03:04:07;;;;;;;16.55;12.35;;;;;;;-6.90;100.00;98289.03;1223488;75;2920376;-64
2024/01/13 03:06:40;;;;;;;14.80;10.80;;;;;;;-6.84;100.00;98292.19;1224619;75;2918731;-64
2024/01/13 03:09:16;;;;;;;16.65;10.45;;;;;;;-6.93;100.00;98301.13;1224866;75;2939106;-65
2024/01/13 03:11:49;;;;;;;16.60;11.25;;;;;;;-6.86;100.00;98285.31;1224246;75;2921793;-63
2024/01/13 03:14:22;;;;;;;14.70;9.95;;;;;;;-6.83;100.00;98272.44;1225002;75;2922202;-65
2024/01/13 03:16:54;;;;;;;12.70;9.15;;;;;;;-6.86;100.00;98274.66;1223018;75;2928411;-65
2024/01/13 03:19:28;;;;;;;19.15;12.95;;;;;;;-7.13;100.00;98264.91;1224289;75;2920321;-65
2024/01/13 03:22:00;;;;;;;17.70;12.20;;;;;;;-6.96;100.00;98269.09;1225446;75;2927696;-67
2024/01/13 03:24:36;;;;;;;28.45;19.20;;;;;;;-7.17;100.00;98261.38;1224612;75;2918615;-63
2024/01/13 03:27:09;;;;;;;26.65;17.75;;;;;;;-6.96;100.00;98258.47;1223776;75;2935044;-67
2024/01/13 03:29:42;;;;;;;22.30;15.35;;;;;;;-6.89;100.00;98253.31;1225075;75;2923681;-67
2024/01/13 03:32:14;;;;;;;21.60;13.45;;;;;;;-6.92;100.00;98254.00;1224745;75;2921664;-67
2024/01/13 03:34:47;;;;;;;16.90;11.85;;;;;;;-6.89;100.00;98250.66;1223363;75;2925338;-65
2024/01/13 03:37:20;;;;;;;15.15;10.80;;;;;;;-6.95;100.00;98250.16;1225191;75;2918234;-65
2024/01/13 03:39:55;;;;;;;16.20;11.10;;;;;;;-7.01;100.00;98253.41;1225465;75;2932607;-64
2024/01/13 03:42:28;;;;;;;17.60;12.40;;;;;;;-7.14;100.00;98250.84;1224340;75;2921001;-66
2024/01/13 03:45:01;;;;;;;16.10;11.80;;;;;;;-7.07;100.00;98248.34;1225146;75;2928919;-67
2024/01/13 03:47:34;;;;;;;17.15;11.35;;;;;;;-7.19;100.00;98248.44;1225200;67;2925914;-65
2024/01/13 03:50:08;;;;;;;19.75;12.10;;;;;;;-7.21;100.00;98245.34;1224939;75;2920560;-65
2024/01/13 03:52:41;;;;;;;18.75;12.95;;;;;;;-7.19;100.00;98237.78;1225515;75;2925236;-66
2024/01/13 03:55:17;;;;;;;16.05;11.20;;;;;;;-7.10;100.00;98248.25;1224131;75;2931247;-64
2024/01/13 03:57:50;;;;;;;15.90;10.80;;;;;;;-7.25;100.00;98239.16;1224729;75;2917641;-64
2024/01/13 04:00:23;;;;;;;19.80;12.90;;;;;;;-7.20;100.00;98238.13;1223355;75;2921669;-65
2024/01/13 04:02:56;;;;;;;17.20;11.40;;;;;;;-7.20;100.00;98244.22;1224158;75;2919266;-65
2024/01/13 04:05:29;;;;;;;17.85;12.05;;;;;;;-7.14;100.00;98242.84;1223014;75;2932991;-65
2024/01/13 04:08:02;;;;;;;16.05;11.15;;;;;;;-7.19;100.00;98235.13;1224949;75;2920660;-64
2024/01/13 04:10:38;;;;;;;14.90;10.45;;;;;;;-7.13;100.00;98233.75;1224208;75;2924579;-67
2024/01/13 04:13:15;;;;;;;16.40;11.95;;;;;;;-7.33;100.00;98245.41;1225486;75;2933175;-65
2024/01/13 04:15:48;;;;;;;16.80;11.60;;;;;;;-7.19;100.00;98244.97;1223589;75;2962462;-64
2024/01/13 04:18:21;;;;;;;17.65;11.85;;;;;;;-7.36;100.00;98246.09;1224791;75;2928550;-67
2024/01/13 04:20:54;;;;;;;19.25;13.35;;;;;;;-7.37;100.00;98245.31;1225050;75;2926808;-65
2024/01/13 04:23:26;;;;;;;18.15;13.75;;;;;;;-7.24;100.00;98247.91;1224042;75;2929372;-65
2024/01/13 04:26:02;;;;;;;19.25;12.90;;;;;;;-7.44;100.00;98247.03;1224600;75;2924914;-64
2024/01/13 04:28:35;;;;;;;19.00;12.90;;;;;;;-7.32;100.00;98236.31;1223852;75;2923752;-64
2024/01/13 04:31:08;;;;;;;18.50;13.15;;;;;;;-7.29;100.00;98246.25;1223491;75;2924599;-63
2024/01/13 04:33:40;;;;;;;15.70;11.20;;;;;;;-7.25;100.00;98249.03;1224740;75;2942061;-65
2024/01/13 04:36:14;;;;;;;16.25;11.00;;;;;;;-7.24;100.00;98237.25;1224347;75;2923503;-66
2024/01/13 04:38:46;;;;;;;13.20;9.95;;;;;;;-7.37;100.00;98242.66;1223764;75;2924569;-65
2024/01/13 04:41:22;;;;;;;18.15;12.80;;;;;;;-7.51;100.00;98245.72;1223642;75;2924795;-65
2024/01/13 04:43:55;;;;;;;15.65;11.15;;;;;;;-7.29;100.00;98256.91;1223951;75;2918852;-65
2024/01/13 04:46:28;;;;;;;17.20;11.65;;;;;;;-7.33;100.00;98253.41;1224020;75;2929224;-64
2024/01/13 04:49:01;;;;;;;18.70;12.80;;;;;;;-7.19;100.00;98247.63;1223427;75;2974461;-64
2024/01/13 04:51:34;;;;;;;16.30;11.65;;;;;;;-7.32;100.00;98242.41;1224674;75;2916566;-65
2024/01/13 04:54:07;;;;;;;17.90;11.00;;;;;;;-7.28;100.00;98242.50;1223493;75;2933939;-63
2024/01/13 04:56:42;;;;;;;15.15;10.50;;;;;;;-7.31;100.00;98243.16;1224497;75;2927243;-67
2024/01/13 04:59:15;;;;;;;15.75;11.05;;;;;;;-7.29;100.00;98243.59;1224451;75;2920011;-67
2024/01/13 05:01:48;;;;;;;13.40;9.65;;;;;;;-7.33;100.00;98240.09;1223995;75;2921081;-65
2024/01/13 05:04:21;;;;;;;18.25;12.30;;;;;;;-7.40;100.00;98240.69;1224514;75;2915819;-65
2024/01/13 05:06:54;;;;;;;16.30;11.30;;;;;;;-7.35;100.00;98242.31;1224151;75;2922946;-64
2024/01/13 05:09:27;;;;;;;17.85;11.90;;;;;;;-7.28;100.00;98235.28;1223935;75;2923694;-64
2024/01/13 05:12:02;;;;;;;15.90;11.10;;;;;;;-7.31;100.00;98227.22;1223927;75;2918612;-65
2024/01/13 05:14:36;;;;;;;13.60;9.80;;;;;;;-7.35;100.00;98224.47;1223890;75;2936117;-65
2024/01/13 05:17:09;;;;;;;18.20;11.60;;;;;;;-7.45;100.00;98226.88;1222960;75;2921815;-65
2024/01/13 05:19:42;;;;;;;16.15;11.65;;;;;;;-7.46;100.00;98241.28;1224428;75;2926997;-67
2024/01/13 05:22:15;;;;;;;24.45;16.15;;;;;;;-7.48;100.00;98230.19;1223419;75;2921043;-65
2024/01/13 05:24:48;;;;;;;19.60;13.50;;;;;;;-7.42;100.00;98226.19;1222801;75;2925306;-64
2024/01/13 05:27:23;;;;;;;20.70;14.55;;;;;;;-7.47;100.00;98219.25;1223887;75;2918376;-66
2024/01/13 05:29:56;;;;;;;19.70;13.75;;;;;;;-7.47;100.00;98211.25;1223473;75;2924878;-66
2024/01/13 05:32:29;;;;;;;20.60;13.35;;;;;;;-7.59;100.00;98219.31;1202071;75;4593977;-66
2024/01/13 05:35:02;;;;;;;16.25;11.45;;;;;;;-7.53;100.00;98220.59;1224128;75;2921414;-67
2024/01/13 05:37:35;;;;;;;17.25;12.00;;;;;;;-7.58;100.00;98215.53;1223367;75;2932377;-64
2024/01/13 05:40:11;;;;;;;16.40;11.60;;;;;;;-7.72;100.00;98214.06;1223747;75;2925537;-64
2024/01/13 05:42:46;;;;;;;15.30;11.45;;;;;;;-7.70;100.00;98211.06;1224701;75;2925321;-64
2024/01/13 05:45:19;;;;;;;16.95;12.35;;;;;;;-7.62;100.00;98218.13;1222843;75;2934319;-66
2024/01/13 05:47:52;;;;;;;16.10;11.40;;;;;;;-7.64;100.00;98214.25;1225777;75;2921180;-63
2024/01/13 05:50:24;;;;;;;15.20;10.05;;;;;;;-7.72;100.00;98210.63;1223754;75;2920750;-62
2024/01/13 05:52:57;;;;;;;12.15;9.30;;;;;;;-7.64;100.00;98216.91;1224652;75;2942993;-65
2024/01/13 05:55:30;;;;;;;15.30;10.30;;;;;;;-7.66;100.00;98211.16;1223345;75;2925636;-65
2024/01/13 05:58:06;;;;;;;13.15;9.10;;;;;;;-7.67;100.00;98221.03;1225003;75;2928625;-67
2024/01/13 06:00:39;;;;;;;14.80;9.70;;;;;;;-7.64;100.00;98209.69;1219428;75;2925247;-62
2024/01/13 06:03:12;;;;;;;12.65;8.80;;;;;;;-7.70;100.00;98203.06;1225253;75;2918955;-64
2024/01/13 06:05:45;;;;;;;14.65;9.90;;;;;;;-7.84;100.00;98202.72;1223907;75;2922946;-65
2024/01/13 06:08:17;;;;;;;21.90;15.00;;;;;;;-7.88;100.00;98207.19;1224621;75;2935868;-64
2024/01/13 06:10:50;;;;;;;21.55;14.05;;;;;;;-7.98;100.00;98203.13;1223459;75;2943922;-65
2024/01/13 06:13:26;;;;;;;25.75;15.05;;;;;;;-8.00;100.00;98195.47;1224120;75;2918455;-67
2024/01/13 06:15:58;;;;;;;24.20;16.35;;;;;;;-7.94;100.00;98198.66;1223995;75;2925988;-64
2024/01/13 06:18:31;;;;;;;23.05;15.25;;;;;;;-7.93;100.00;98200.22;1224284;75;2914487;-66
2024/01/13 06:21:07;;;;;;;24.20;17.30;;;;;;;-7.87;100.00;98195.41;1222969;75;2943686;-64
2024/01/13 06:23:40;;;;;;;23.60;14.65;;;;;;;-7.80;100.00;98192.94;1222220;75;2924429;-66
2024/01/13 06:26:12;;;;;;;20.10;13.25;;;;;;;-7.73;100.00;98188.59;1225121;75;2919679;-63
2024/01/13 06:28:48;;;;;;;19.45;13.65;;;;;;;-7.79;100.00;98184.66;1224190;75;2920450;-65
2024/01/13 06:31:21;;;;;;;17.20;12.50;;;;;;;-7.80;100.00;98177.78;1224294;75;2920193;-66
2024/01/13 06:33:54;;;;;;;18.25;12.00;;;;;;;-7.75;100.00;98180.19;1223611;75;2925850;-66
2024/01/13 06:36:26;;;;;;;17.45;11.90;;;;;;;-7.83;100.00;98175.03;1223748;75;2924764;-64
2024/01/13 06:38:59;;;;;;;17.95;12.30;;;;;;;-7.82;100.00;98174.69;1224662;75;2924192;-64
2024/01/13 06:41:32;;;;;;;17.85;12.90;;;;;;;-7.80;100.00;98177.00;1224802;75;2930695;-63
2024/01/13 06:44:08;;;;;;;18.55;12.70;;;;;;;-7.78;100.00;98174.78;1223435;75;2924859;-66
2024/01/13 06:46:41;;;;;;;18.20;12.05;;;;;;;-7.78;100.00;98172.88;1224599;75;2920686;-65
2024/01/13 06:49:13;;;;;;;28.15;18.95;;;;;;;-7.78;100.00;98172.13;1224056;75;2928955;-64
2024/01/13 06:51:46;;;;;;;39.45;24.30;;;;;;;-7.85;100.00;98170.06;1223498;75;2931086;-66
2024/01/13 06:54:19;;;;;;;34.95;22.00;;;;;;;-7.74;100.00;98179.06;1222673;75;2920555;-67
2024/01/13 06:56:52;;;;;;;35.20;22.00;;;;;;;-7.80;100.00;98180.44;1224253;75;2934556;-64
2024/01/13 06:59:27;;;;;;;46.10;26.80;;;;;;;-7.84;100.00;98181.44;1223027;75;2934386;-65
2024/01/13 07:02:00;;;;;;;39.45;26.00;;;;;;;-7.85;100.00;98172.72;1193620;75;5374573;-64
2024/01/13 07:04:33;;;;;;;40.50;25.35;;;;;;;-7.76;100.00;98180.53;1223630;75;2928138;-65
2024/01/13 07:07:06;;;;;;;37.20;24.10;;;;;;;-7.63;100.00;98182.00;1223615;75;2925149;-66
2024/01/13 07:09:39;;;;;;;31.90;20.80;;;;;;;-7.64;100.00;98175.16;1223897;75;2917729;-66
2024/01/13 07:12:13;;;;;;;28.70;18.30;;;;;;;-7.51;100.00;98183.81;1224868;75;2918341;-64
2024/01/13 07:14:48;;;;;;;27.65;17.95;;;;;;;-7.44;100.00;98175.22;1223511;75;2923272;-64
2024/01/13 07:17:21;;;;;;;23.50;16.65;;;;;;;-7.42;100.00;98168.47;1222178;75;3052912;-64
2024/01/13 07:19:54;;;;;;;26.30;17.30;;;;;;;-7.34;100.00;98164.84;1221549;75;2932480;-63
2024/01/13 07:22:27;;;;;;;22.95;16.25;;;;;;;-7.25;100.00;98166.56;1223526;75;2936584;-65
2024/01/13 07:25:03;;;;;;;20.65;14.10;;;;;;;-7.16;100.00;98151.19;1222857;75;2921312;-65
2024/01/13 07:27:36;;;;;;;19.45;12.75;;;;;;;-7.05;100.00;98165.50;1222884;75;2923755;-64
2024/01/13 07:30:14;;;;;;;15.05;11.40;;;;;;;-7.00;100.00;98154.59;1222988;75;2925067;-65
2024/01/13 07:32:47;;;;;;;15.40;10.80;;;;;;;-6.93;100.00;98146.75;1223964;75;2926848;-64
2024/01/13 07:35:20;;;;;;;16.00;10.30;;;;;;;-6.86;100.00;98149.56;1220598;75;2922255;-64
2024/01/13 07:37:52;;;;;;;15.35;10.40;;;;;;;-6.70;100.00;98152.19;1218638;75;2924038;-64
2024/01/13 07:40:26;;;;;;;16.10;10.80;;;;;;;-6.58;100.00;98155.84;1222453;75;2932809;-65
2024/01/13 07:42:59;;;;;;;28.60;18.55;;;;;;;-6.52;100.00;98163.19;1222677;75;2927276;-64
2024/01/13 07:45:34;;;;;;;24.50;18.15;;;;;;;-6.30;100.00;98159.09;1223942;75;2934164;-64
2024/01/13 07:48:08;;;;;;;32.00;21.05;;;;;;;-6.39;100.00;98161.19;1223924;75;2925872;-63
2024/01/13 07:50:41;;;;;;;32.55;22.60;;;;;;;-6.30;100.00;98159.09;1222636;75;2919128;-66
2024/01/13 07:53:14;;;;;;;34.30;23.65;;;;;;;-6.07;100.00;98163.69;1222708;75;2927040;-66
2024/01/13 07:55:46;;;;;;;44.45;26.90;;;;;;;-5.94;100.00;98157.09;1222511;75;2944482;-64
2024/01/13 07:58:19;;;;;;;39.50;28.35;;;;;;;-4.66;100.00;98157.53;1224046;75;2928218;-65
2024/01/13 08:00:55;;;;;;;33.85;22.75;;;;;;;-3.31;100.00;98162.00;1225443;75;2928229;-66
2024/01/13 08:03:28;;;;;;;26.60;18.90;;;;;;;-2.40;100.00;98164.88;1224186;75;2935058;-64
2024/01/13 08:06:01;;;;;;;26.25;19.15;;;;;;;-1.45;90.97;98154.75;1224170;75;2931304;-63
2024/01/13 08:08:35;;;;;;;24.80;17.35;;;;;;;-0.94;85.56;98164.34;1223567;75;2917694;-65
2024/01/13 08:11:08;;;;;;;22.45;16.90;;;;;;;-0.73;87.91;98160.81;1223811;75;2927521;-65
2024/01/13 08:13:41;;;;;;;18.20;14.10;;;;;;;-0.32;83.58;98162.25;1220830;83;2958147;-64
2024/01/13 08:16:17;;;;;;;19.20;15.25;;;;;;;-0.49;81.27;98155.78;1217357;75;3249330;-65
2024/01/13 08:18:50;;;;;;;24.40;20.40;;;;;;;-1.38;83.44;98175.47;1224751;75;2924921;-64
2024/01/13 08:21:22;;;;;;;24.65;19.50;;;;;;;-1.25;84.92;98163.22;1225000;75;2924439;-64
2024/01/13 08:23:55;;;;;;;22.30;17.15;;;;;;;-0.83;85.11;98163.56;1221446;75;2930610;-66
2024/01/13 08:26:30;;;;;;;28.00;19.00;;;;;;;-1.79;89.41;98168.50;1222600;75;2921003;-65
2024/01/13 08:29:02;;;;;;;36.55;24.65;;;;;;;-2.47;95.75;98179.00;1224857;75;2925537;-65
2024/01/13 08:31:38;;;;;;;37.10;24.65;;;;;;;-2.92;100.00;98186.38;1223419;75;2939731;-64
2024/01/13 08:34:12;;;;;;;30.05;20.80;;;;;;;-1.94;98.01;98183.03;1224159;75;2926759;-65
2024/01/13 08:36:46;;;;;;;31.75;22.15;;;;;;;-2.32;96.19;98185.19;1222728;75;2938469;-64
2024/01/13 08:39:19;;;;;;;30.25;20.95;;;;;;;-1.76;95.30;98186.53;1223495;75;2920771;-65
2024/01/13 08:41:52;;;;;;;31.10;21.35;;;;;;;-2.84;100.00;98189.88;1224274;75;2943095;-65
2024/01/13 08:44:25;;;;;;;31.35;22.00;;;;;;;-3.11;100.00;98181.28;1223199;75;2924533;-63
2024/01/13 08:47:00;;;;;;;29.90;20.25;;;;;;;-2.43;100.00;98181.69;1224168;75;2929039;-63
2024/01/13 08:49:33;;;;;;;26.10;18.45;;;;;;;-1.87;100.00;98175.00;1224728;75;2929756;-63
2024/01/13 08:52:06;;;;;;;21.90;15.60;;;;;;;-1.16;93.08;98178.91;1223728;75;2926614;-64
2024/01/13 08:54:39;;;;;;;20.50;14.40;;;;;;;-0.84;90.37;98194.25;1223779;67;2920920;-64
2024/01/13 08:57:12;;;;;;;26.40;18.55;;;;;;;-1.03;91.21;98193.53;1224973;75;2932478;-65
2024/01/13 08:59:44;;;;;;;22.95;16.95;;;;;;;-0.81;89.32;98188.88;1223464;75;2928122;-64
2024/01/13 09:02:20;;;;;;;31.45;21.60;;;;;;;-2.08;98.28;98191.81;1223413;75;2930463;-66
2024/01/13 09:04:53;;;;;;;34.40;21.60;;;;;;;-2.19;100.00;98186.41;1224271;75;2929259;-64
2024/01/13 09:07:27;;;;;;;28.40;21.05;;;;;;;-2.13;100.00;98194.09;1223017;75;2938019;-63
2024/01/13 09:10:00;;;;;;;28.75;19.55;;;;;;;-1.39;97.98;98190.81;1223612;75;2921172;-64
2024/01/13 09:12:33;;;;;;;30.00;19.40;;;;;;;-0.56;96.27;98198.81;1224495;75;2922343;-65
2024/01/13 09:15:09;;;;;;;25.75;17.10;;;;;;;0.01;86.65;98189.81;1221089;75;2946069;-66
2024/01/13 09:17:45;;;;;;;25.25;18.65;;;;;;;-0.12;84.91;98190.25;1224445;75;2929338;-64
2024/01/13 09:20:18;;;;;;;28.95;20.95;;;;;;;0.24;82.80;98183.91;1223622;75;2926647;-66
2024/01/13 09:22:51;;;;;;;30.55;20.85;;;;;;;0.62;81.30;98190.22;1224570;75;2924863;-65
2024/01/13 09:25:23;;;;;;;26.55;18.65;;;;;;;1.76;76.91;98184.97;1223763;75;2918968;-67
2024/01/13 09:27:56;;;;;;;23.75;16.95;;;;;;;2.30;74.78;98177.69;1223369;75;2924667;-65
2024/01/13 09:30:29;;;;;;;26.45;18.60;;;;;;;2.32;71.95;98185.41;1224446;75;2909810;-63
2024/01/13 09:33:05;;;;;;;24.40;16.85;;;;;;;3.70;67.95;98175.41;1225244;75;2921329;-64
2024/01/13 09:35:38;;;;;;;30.40;20.40;;;;;;;3.31;67.64;98179.59;1224328;75;2875783;-63
2024/01/13 09:38:10;;;;;;;30.30;21.50;;;;;;;3.04;67.70;98170.81;1225179;75;2843180;-67
2024/01/13 09:40:43;;;;;;;28.60;18.60;;;;;;;4.54;65.65;98172.50;1224308;75;2931956;-65
2024/01/13 09:43:28;;;;;;;26.15;18.05;;;;;;;4.34;65.76;98157.06;1223364;75;2926624;-64
2024/01/13 09:46:01;;;;;;;28.90;20.30;;;;;;;4.16;65.52;98148.56;1223789;75;2923212;-64
2024/01/13 09:48:36;;;;;;;26.45;18.90;;;;;;;4.10;65.87;98144.84;1224381;75;2916546;-65
2024/01/13 09:51:10;;;;;;;25.10;18.30;;;;;;;4.83;64.70;98140.81;1223421;75;2923642;-67
2024/01/13 09:53:57;;;;;;;28.85;18.20;;;;;;;5.11;63.51;98133.94;1223984;75;2933234;-65
2024/01/13 09:56:36;;;;;;;22.70;16.00;;;;;;;5.76;63.16;98127.53;1222557;75;2924474;-65
2024/01/13 09:59:08;;;;;;;21.20;15.20;;;;;;;6.45;61.43;98128.28;1220743;75;2996750;-63
2024/01/13 10:01:42;;;;;;;20.95;14.55;;;;;;;7.24;57.70;98108.19;1223989;75;2923221;-66
2024/01/13 10:04:18;;;;;;;22.00;15.25;;;;;;;7.86;56.85;98106.78;1223027;75;2921388;-66
2024/01/13 10:06:51;;;;;;;22.30;15.45;;;;;;;8.19;56.00;98109.81;1224540;75;2914845;-67
2024/01/13 10:09:25;;;;;;;23.70;17.35;;;;;;;7.92;55.18;98104.25;1212562;75;3221324;-66
2024/01/13 10:11:59;;;;;;;21.55;15.25;;;;;;;7.27;55.27;98108.50;1223512;67;2914204;-64
2024/01/13 10:14:32;;;;;;;24.30;16.75;;;;;;;7.90;54.86;98091.81;1225329;75;2920659;-68
2024/01/13 10:17:06;;;;;;;23.60;16.70;;;;;;;8.95;53.94;98086.53;1224595;75;2921925;-65
2024/01/13 10:19:43;;;;;;;21.45;16.05;;;;;;;8.85;52.54;98076.84;1223906;75;2922775;-65
2024/01/13 10:22:18;;;;;;;24.00;15.15;;;;;;;9.07;50.81;98079.44;1223614;75;2921602;-64
2024/01/13 10:24:53;;;;;;;22.80;14.00;;;;;;;11.02;47.97;98063.84;1223892;75;2925402;-64
2024/01/13 10:27:26;;;;;;;20.20;13.65;;;;;;;12.07;46.06;98055.19;1222968;75;2922269;-65
2024/01/13 10:29:59;;;;;;;17.05;12.55;;;;;;;12.75;46.45;98056.16;1223640;75;2922812;-66
2024/01/13 10:32:32;;;;;;;16.45;12.75;;;;;;;13.85;43.49;98057.06;1223252;75;2928956;-66
2024/01/13 10:35:09;;;;;;;18.45;12.85;;;;;;;13.21;42.96;98060.94;1223725;75;2922243;-65
2024/01/13 10:37:41;;;;;;;20.55;14.50;;;;;;;10.17;48.24;98056.56;1223886;75;2939193;-63
2024/01/13 10:40:14;;;;;;;19.20;14.30;;;;;;;9.95;48.35;98047.84;1224025;75;2927129;-66
2024/01/13 10:42:52;;;;;;;18.35;13.90;;;;;;;10.35;48.84;98047.53;1224034;75;2920949;-64
2024/01/13 10:45:27;;;;;;;18.10;13.60;;;;;;;10.84;48.81;98035.34;1222761;75;2933608;-65
2024/01/13 10:48:15;;;;;;;19.60;14.30;;;;;;;9.79;51.19;98038.03;1206718;75;3219580;-67
2024/01/13 10:50:54;;;;;;;19.45;15.15;;;;;;;8.01;53.07;98025.97;1216018;75;3195315;-65
2024/01/13 10:53:32;;;;;;;21.35;15.00;;;;;;;8.46;54.10;98016.41;1224523;75;2921510;-63
2024/01/13 10:56:07;;;;;;;19.55;15.10;;;;;;;9.23;50.87;98020.97;1223795;75;2919576;-65
2024/01/13 10:58:40;;;;;;;17.80;13.55;;;;;;;9.25;51.41;98023.25;1223483;75;2922750;-64
2024/01/13 11:01:13;;;;;;;14.55;11.15;;;;;;;10.59;49.16;98016.69;1223768;75;2938664;-66
2024/01/13 11:03:47;;;;;;;17.70;13.25;;;;;;;10.36;48.45;98002.50;1223842;75;2922180;-66
2024/01/13 11:06:23;;;;;;;19.60;14.40;;;;;;;9.75;49.88;98008.09;1223952;75;2918329;-67
2024/01/13 11:08:56;;;;;;;23.35;14.65;;;;;;;10.26;49.00;98001.03;1222879;75;2924927;-66
2024/01/13 11:11:35;;;;;;;26.10;14.15;;;;;;;9.76;49.22;98017.06;1223138;75;2919113;-66
2024/01/13 11:14:13;;;;;;;15.80;11.00;;;;;;;11.56;46.74;97998.00;1223870;75;2934096;-65
2024/01/13 11:16:47;;;;;;;16.30;12.00;;;;;;;11.72;45.93;97992.03;1223031;75;2928891;-64
2024/01/13 11:19:20;;;;;;;18.65;13.35;;;;;;;9.97;48.13;97993.44;1223877;75;2919648;-68
2024/01/13 11:21:56;;;;;;;18.60;12.95;;;;;;;9.95;49.33;97984.94;1225275;75;2919370;-66
2024/01/13 11:24:30;;;;;;;17.75;13.80;;;;;;;10.13;48.85;97975.88;1222506;75;2934887;-66
2024/01/13 11:27:03;;;;;;;21.30;13.60;;;;;;;11.12;47.19;97983.06;1225174;75;2916751;-68